sensor_id;sensor_type;location;lat;lon;timestamp;P1;durP1;ratioP1;P2;durP2;ratioP2
15246;SDS011;7726;48.820;9.248;2023-03-24T00:02:21;4.63;;;3.30;;
15246;SDS011;7726;48.820;9.248;2023-03-24T00:04:48;5.07;;;3.13;;
15246;SDS011;7726;48.820;9.248;2023-03-24T00:07:17;4.75;;;3.15;;
15246;SDS011;7726;48.820;9.248;2023-03-24T00:09:47;7.38;;;3.40;;
15246;SDS011;7726;48.820;9.248;2023-03-24T00:12:15;5.95;;;3.88;;
15246;SDS011;7726;48.820;9.248;2023-03-24T00:14:44;4.78;;;3.45;;
15246;SDS011;7726;48.820;9.248;2023-03-24T00:17:11;6.95;;;3.60;;
15246;SDS011;7726;48.820;9.248;2023-03-24T00:19:41;3.83;;;2.65;;
15246;SDS011;7726;48.820;9.248;2023-03-24T00:22:10;3.45;;;2.90;;
15246;SDS011;7726;48.820;9.248;2023-03-24T00:24:38;3.25;;;2.60;;
15246;SDS011;7726;48.820;9.248;2023-03-24T00:27:06;2.95;;;2.30;;
15246;SDS011;7726;48.820;9.248;2023-03-24T00:29:37;3.03;;;2.72;;
15246;SDS011;7726;48.820;9.248;2023-03-24T00:32:06;2.72;;;2.20;;
15246;SDS011;7726;48.820;9.248;2023-03-24T00:34:33;3.30;;;2.83;;
15246;SDS011;7726;48.820;9.248;2023-03-24T00:37:02;6.32;;;2.25;;
15246;SDS011;7726;48.820;9.248;2023-03-24T00:39:30;3.75;;;3.05;;
15246;SDS011;7726;48.820;9.248;2023-03-24T00:41:58;2.58;;;2.38;;
15246;SDS011;7726;48.820;9.248;2023-03-24T00:44:26;3.33;;;2.38;;
15246;SDS011;7726;48.820;9.248;2023-03-24T00:46:53;2.60;;;2.40;;
15246;SDS011;7726;48.820;9.248;2023-03-24T00:49:22;3.58;;;2.30;;
15246;SDS011;7726;48.820;9.248;2023-03-24T00:52:06;2.95;;;2.65;;
15246;SDS011;7726;48.820;9.248;2023-03-24T00:54:35;3.00;;;2.70;;
15246;SDS011;7726;48.820;9.248;2023-03-24T00:57:02;6.13;;;2.50;;
15246;SDS011;7726;48.820;9.248;2023-03-24T00:59:30;5.30;;;2.15;;
15246;SDS011;7726;48.820;9.248;2023-03-24T01:02:02;2.97;;;2.40;;
15246;SDS011;7726;48.820;9.248;2023-03-24T01:04:31;4.15;;;2.72;;
15246;SDS011;7726;48.820;9.248;2023-03-24T01:07:00;4.80;;;2.75;;
15246;SDS011;7726;48.820;9.248;2023-03-24T01:09:27;3.00;;;2.70;;
15246;SDS011;7726;48.820;9.248;2023-03-24T01:11:54;2.78;;;2.50;;
15246;SDS011;7726;48.820;9.248;2023-03-24T01:14:22;4.60;;;2.70;;
15246;SDS011;7726;48.820;9.248;2023-03-24T01:16:49;3.10;;;2.70;;
15246;SDS011;7726;48.820;9.248;2023-03-24T01:19:17;3.85;;;2.90;;
15246;SDS011;7726;48.820;9.248;2023-03-24T01:21:45;4.47;;;2.20;;
15246;SDS011;7726;48.820;9.248;2023-03-24T01:24:15;2.40;;;2.20;;
15246;SDS011;7726;48.820;9.248;2023-03-24T01:26:42;3.55;;;2.08;;
15246;SDS011;7726;48.820;9.248;2023-03-24T01:29:10;2.00;;;1.90;;
15246;SDS011;7726;48.820;9.248;2023-03-24T01:31:37;5.38;;;2.30;;
15246;SDS011;7726;48.820;9.248;2023-03-24T01:34:04;3.65;;;2.65;;
15246;SDS011;7726;48.820;9.248;2023-03-24T01:36:32;3.67;;;3.22;;
15246;SDS011;7726;48.820;9.248;2023-03-24T01:39:00;4.32;;;3.72;;
15246;SDS011;7726;48.820;9.248;2023-03-24T01:41:30;4.38;;;3.08;;
15246;SDS011;7726;48.820;9.248;2023-03-24T01:43:58;3.63;;;3.17;;
15246;SDS011;7726;48.820;9.248;2023-03-24T01:46:25;3.65;;;2.90;;
15246;SDS011;7726;48.820;9.248;2023-03-24T01:48:54;2.90;;;2.60;;
15246;SDS011;7726;48.820;9.248;2023-03-24T01:51:23;3.40;;;2.60;;
15246;SDS011;7726;48.820;9.248;2023-03-24T01:53:52;3.88;;;2.85;;
15246;SDS011;7726;48.820;9.248;2023-03-24T01:56:22;3.70;;;2.40;;
15246;SDS011;7726;48.820;9.248;2023-03-24T01:58:52;2.95;;;2.65;;
15246;SDS011;7726;48.820;9.248;2023-03-24T02:01:20;3.85;;;3.13;;
15246;SDS011;7726;48.820;9.248;2023-03-24T02:03:50;5.05;;;3.08;;
15246;SDS011;7726;48.820;9.248;2023-03-24T02:06:18;3.05;;;2.75;;
15246;SDS011;7726;48.820;9.248;2023-03-24T02:08:47;2.75;;;2.45;;
15246;SDS011;7726;48.820;9.248;2023-03-24T02:11:16;3.17;;;2.65;;
15246;SDS011;7726;48.820;9.248;2023-03-24T02:13:44;2.47;;;2.13;;
15246;SDS011;7726;48.820;9.248;2023-03-24T02:16:14;2.58;;;2.38;;
15246;SDS011;7726;48.820;9.248;2023-03-24T02:18:46;2.97;;;2.40;;
15246;SDS011;7726;48.820;9.248;2023-03-24T02:21:34;2.97;;;2.30;;
15246;SDS011;7726;48.820;9.248;2023-03-24T02:24:20;3.60;;;3.10;;
15246;SDS011;7726;48.820;9.248;2023-03-24T02:26:54;2.75;;;2.55;;
15246;SDS011;7726;48.820;9.248;2023-03-24T02:29:39;2.90;;;2.40;;
15246;SDS011;7726;48.820;9.248;2023-03-24T02:35:04;2.70;;;2.47;;
15246;SDS011;7726;48.820;9.248;2023-03-24T02:37:40;3.20;;;2.42;;
15246;SDS011;7726;48.820;9.248;2023-03-24T02:40:16;2.50;;;2.30;;
15246;SDS011;7726;48.820;9.248;2023-03-24T02:42:48;3.30;;;2.00;;
15246;SDS011;7726;48.820;9.248;2023-03-24T02:45:20;2.15;;;2.00;;
15246;SDS011;7726;48.820;9.248;2023-03-24T02:47:50;3.25;;;2.70;;
15246;SDS011;7726;48.820;9.248;2023-03-24T02:50:21;2.88;;;2.40;;
15246;SDS011;7726;48.820;9.248;2023-03-24T02:52:55;3.75;;;2.92;;
15246;SDS011;7726;48.820;9.248;2023-03-24T02:55:28;4.10;;;3.00;;
15246;SDS011;7726;48.820;9.248;2023-03-24T02:57:58;3.60;;;3.05;;
15246;SDS011;7726;48.820;9.248;2023-03-24T03:00:30;5.18;;;2.88;;
15246;SDS011;7726;48.820;9.248;2023-03-24T03:02:59;2.83;;;2.45;;
15246;SDS011;7726;48.820;9.248;2023-03-24T03:05:28;3.05;;;2.72;;
15246;SDS011;7726;48.820;9.248;2023-03-24T03:07:57;6.07;;;2.97;;
15246;SDS011;7726;48.820;9.248;2023-03-24T03:10:28;3.65;;;2.72;;
15246;SDS011;7726;48.820;9.248;2023-03-24T03:12:57;3.60;;;2.28;;
15246;SDS011;7726;48.820;9.248;2023-03-24T03:15:27;4.22;;;2.20;;
15246;SDS011;7726;48.820;9.248;2023-03-24T03:17:55;2.60;;;2.20;;
15246;SDS011;7726;48.820;9.248;2023-03-24T03:20:24;3.60;;;2.50;;
15246;SDS011;7726;48.820;9.248;2023-03-24T03:22:55;3.20;;;2.65;;
15246;SDS011;7726;48.820;9.248;2023-03-24T03:25:28;2.95;;;2.08;;
15246;SDS011;7726;48.820;9.248;2023-03-24T03:27:56;4.53;;;2.55;;
15246;SDS011;7726;48.820;9.248;2023-03-24T03:30:27;3.42;;;2.70;;
15246;SDS011;7726;48.820;9.248;2023-03-24T03:32:58;2.47;;;2.28;;
15246;SDS011;7726;48.820;9.248;2023-03-24T03:35:28;2.80;;;2.28;;
15246;SDS011;7726;48.820;9.248;2023-03-24T03:37:57;2.78;;;2.30;;
15246;SDS011;7726;48.820;9.248;2023-03-24T03:40:26;3.20;;;2.30;;
15246;SDS011;7726;48.820;9.248;2023-03-24T03:42:57;4.15;;;2.30;;
15246;SDS011;7726;48.820;9.248;2023-03-24T03:45:24;1.90;;;1.80;;
15246;SDS011;7726;48.820;9.248;2023-03-24T03:47:51;2.00;;;1.90;;
15246;SDS011;7726;48.820;9.248;2023-03-24T03:50:19;2.95;;;2.13;;
15246;SDS011;7726;48.820;9.248;2023-03-24T03:52:47;2.33;;;1.83;;
15246;SDS011;7726;48.820;9.248;2023-03-24T03:55:14;3.70;;;1.83;;
15246;SDS011;7726;48.820;9.248;2023-03-24T03:57:43;2.50;;;1.92;;
15246;SDS011;7726;48.820;9.248;2023-03-24T04:00:13;1.92;;;1.77;;
15246;SDS011;7726;48.820;9.248;2023-03-24T04:02:43;2.40;;;1.75;;
15246;SDS011;7726;48.820;9.248;2023-03-24T04:05:25;2.25;;;2.05;;
15246;SDS011;7726;48.820;9.248;2023-03-24T04:08:03;2.50;;;2.13;;
15246;SDS011;7726;48.820;9.248;2023-03-24T04:10:35;3.38;;;2.20;;
15246;SDS011;7726;48.820;9.248;2023-03-24T04:13:09;2.17;;;1.95;;
15246;SDS011;7726;48.820;9.248;2023-03-24T04:15:42;2.70;;;2.03;;
15246;SDS011;7726;48.820;9.248;2023-03-24T04:21:02;3.88;;;2.22;;
15246;SDS011;7726;48.820;9.248;2023-03-24T04:23:34;3.20;;;2.40;;
15246;SDS011;7726;48.820;9.248;2023-03-24T04:26:11;4.18;;;2.25;;
15246;SDS011;7726;48.820;9.248;2023-03-24T04:28:41;2.60;;;2.17;;
15246;SDS011;7726;48.820;9.248;2023-03-24T04:31:15;3.13;;;2.45;;
15246;SDS011;7726;48.820;9.248;2023-03-24T04:33:48;2.92;;;2.50;;
15246;SDS011;7726;48.820;9.248;2023-03-24T04:36:18;2.53;;;2.05;;
15246;SDS011;7726;48.820;9.248;2023-03-24T04:38:47;3.03;;;2.17;;
15246;SDS011;7726;48.820;9.248;2023-03-24T04:41:18;3.15;;;2.85;;
15246;SDS011;7726;48.820;9.248;2023-03-24T04:43:47;2.25;;;2.00;;
15246;SDS011;7726;48.820;9.248;2023-03-24T04:46:15;3.53;;;2.30;;
15246;SDS011;7726;48.820;9.248;2023-03-24T04:48:43;2.13;;;1.98;;
15246;SDS011;7726;48.820;9.248;2023-03-24T04:51:12;2.10;;;1.90;;
15246;SDS011;7726;48.820;9.248;2023-03-24T04:53:40;3.75;;;2.20;;
15246;SDS011;7726;48.820;9.248;2023-03-24T04:58:55;3.03;;;2.30;;
15246;SDS011;7726;48.820;9.248;2023-03-24T05:01:24;2.65;;;2.45;;
15246;SDS011;7726;48.820;9.248;2023-03-24T05:03:54;3.35;;;2.03;;
15246;SDS011;7726;48.820;9.248;2023-03-24T05:06:21;4.35;;;2.55;;
15246;SDS011;7726;48.820;9.248;2023-03-24T05:08:48;2.75;;;2.25;;
15246;SDS011;7726;48.820;9.248;2023-03-24T05:11:16;2.97;;;1.90;;
15246;SDS011;7726;48.820;9.248;2023-03-24T05:13:44;2.35;;;2.17;;
15246;SDS011;7726;48.820;9.248;2023-03-24T05:16:12;3.33;;;1.80;;
15246;SDS011;7726;48.820;9.248;2023-03-24T05:18:41;2.30;;;1.60;;
15246;SDS011;7726;48.820;9.248;2023-03-24T05:21:08;1.77;;;1.55;;
15246;SDS011;7726;48.820;9.248;2023-03-24T05:23:36;2.53;;;1.38;;
15246;SDS011;7726;48.820;9.248;2023-03-24T05:26:03;1.77;;;1.67;;
15246;SDS011;7726;48.820;9.248;2023-03-24T05:28:30;2.00;;;1.48;;
15246;SDS011;7726;48.820;9.248;2023-03-24T05:30:57;3.42;;;1.35;;
15246;SDS011;7726;48.820;9.248;2023-03-24T05:33:25;3.15;;;1.13;;
15246;SDS011;7726;48.820;9.248;2023-03-24T05:35:53;2.80;;;1.48;;
15246;SDS011;7726;48.820;9.248;2023-03-24T05:38:21;1.50;;;1.40;;
15246;SDS011;7726;48.820;9.248;2023-03-24T05:40:48;1.50;;;1.40;;
15246;SDS011;7726;48.820;9.248;2023-03-24T05:43:15;1.92;;;1.83;;
15246;SDS011;7726;48.820;9.248;2023-03-24T05:45:42;2.92;;;1.63;;
15246;SDS011;7726;48.820;9.248;2023-03-24T05:48:09;1.98;;;1.73;;
15246;SDS011;7726;48.820;9.248;2023-03-24T05:50:36;2.63;;;1.50;;
15246;SDS011;7726;48.820;9.248;2023-03-24T05:53:05;2.72;;;1.88;;
15246;SDS011;7726;48.820;9.248;2023-03-24T05:55:32;2.55;;;1.80;;
15246;SDS011;7726;48.820;9.248;2023-03-24T05:57:59;2.10;;;1.90;;
15246;SDS011;7726;48.820;9.248;2023-03-24T06:00:27;1.92;;;1.83;;
15246;SDS011;7726;48.820;9.248;2023-03-24T06:02:56;1.77;;;1.67;;
15246;SDS011;7726;48.820;9.248;2023-03-24T06:05:23;1.98;;;1.88;;
15246;SDS011;7726;48.820;9.248;2023-03-24T06:07:50;2.75;;;2.10;;
15246;SDS011;7726;48.820;9.248;2023-03-24T06:10:23;2.10;;;1.95;;
15246;SDS011;7726;48.820;9.248;2023-03-24T06:12:52;2.75;;;1.95;;
15246;SDS011;7726;48.820;9.248;2023-03-24T06:15:19;2.92;;;2.47;;
15246;SDS011;7726;48.820;9.248;2023-03-24T06:17:46;2.88;;;1.95;;
15246;SDS011;7726;48.820;9.248;2023-03-24T06:20:14;2.08;;;1.98;;
15246;SDS011;7726;48.820;9.248;2023-03-24T06:22:43;2.60;;;2.10;;
15246;SDS011;7726;48.820;9.248;2023-03-24T06:25:11;3.20;;;2.60;;
15246;SDS011;7726;48.820;9.248;2023-03-24T06:27:42;2.10;;;1.90;;
15246;SDS011;7726;48.820;9.248;2023-03-24T06:30:10;2.72;;;2.50;;
15246;SDS011;7726;48.820;9.248;2023-03-24T06:32:37;2.53;;;2.33;;
15246;SDS011;7726;48.820;9.248;2023-03-24T06:35:05;2.47;;;2.28;;
15246;SDS011;7726;48.820;9.248;2023-03-24T06:37:32;5.13;;;2.42;;
15246;SDS011;7726;48.820;9.248;2023-03-24T06:40:00;3.55;;;2.50;;
15246;SDS011;7726;48.820;9.248;2023-03-24T06:42:29;3.15;;;2.95;;
15246;SDS011;7726;48.820;9.248;2023-03-24T06:44:57;2.70;;;2.50;;
15246;SDS011;7726;48.820;9.248;2023-03-24T06:47:24;3.78;;;2.20;;
15246;SDS011;7726;48.820;9.248;2023-03-24T06:49:51;1.95;;;1.85;;
15246;SDS011;7726;48.820;9.248;2023-03-24T06:52:19;2.00;;;1.80;;
15246;SDS011;7726;48.820;9.248;2023-03-24T06:54:46;5.03;;;2.40;;
15246;SDS011;7726;48.820;9.248;2023-03-24T06:57:14;3.20;;;2.20;;
15246;SDS011;7726;48.820;9.248;2023-03-24T06:59:41;3.08;;;2.22;;
15246;SDS011;7726;48.820;9.248;2023-03-24T07:02:10;2.30;;;2.03;;
15246;SDS011;7726;48.820;9.248;2023-03-24T07:04:37;4.25;;;2.20;;
15246;SDS011;7726;48.820;9.248;2023-03-24T07:07:04;2.70;;;2.28;;
15246;SDS011;7726;48.820;9.248;2023-03-24T07:09:32;3.60;;;2.20;;
15246;SDS011;7726;48.820;9.248;2023-03-24T07:11:59;3.17;;;2.17;;
15246;SDS011;7726;48.820;9.248;2023-03-24T07:14:27;5.78;;;2.47;;
15246;SDS011;7726;48.820;9.248;2023-03-24T07:16:54;4.63;;;2.53;;
15246;SDS011;7726;48.820;9.248;2023-03-24T07:19:24;2.55;;;2.35;;
15246;SDS011;7726;48.820;9.248;2023-03-24T07:21:51;3.15;;;2.50;;
15246;SDS011;7726;48.820;9.248;2023-03-24T07:24:18;4.00;;;2.10;;
15246;SDS011;7726;48.820;9.248;2023-03-24T07:26:45;3.47;;;2.17;;
15246;SDS011;7726;48.820;9.248;2023-03-24T07:29:13;2.38;;;2.17;;
15246;SDS011;7726;48.820;9.248;2023-03-24T07:31:40;2.20;;;2.00;;
15246;SDS011;7726;48.820;9.248;2023-03-24T07:34:07;2.10;;;1.90;;
15246;SDS011;7726;48.820;9.248;2023-03-24T07:36:35;2.85;;;2.20;;
15246;SDS011;7726;48.820;9.248;2023-03-24T07:39:03;2.28;;;2.05;;
15246;SDS011;7726;48.820;9.248;2023-03-24T07:41:30;2.97;;;2.10;;
15246;SDS011;7726;48.820;9.248;2023-03-24T07:43:58;2.72;;;2.13;;
15246;SDS011;7726;48.820;9.248;2023-03-24T07:46:25;2.03;;;1.88;;
15246;SDS011;7726;48.820;9.248;2023-03-24T07:48:52;2.30;;;2.10;;
15246;SDS011;7726;48.820;9.248;2023-03-24T07:51:19;2.67;;;2.33;;
15246;SDS011;7726;48.820;9.248;2023-03-24T07:53:48;6.55;;;2.20;;
15246;SDS011;7726;48.820;9.248;2023-03-24T07:56:15;4.68;;;2.47;;
15246;SDS011;7726;48.820;9.248;2023-03-24T07:58:42;3.60;;;2.45;;
15246;SDS011;7726;48.820;9.248;2023-03-24T08:01:10;2.70;;;2.15;;
15246;SDS011;7726;48.820;9.248;2023-03-24T08:03:37;2.53;;;2.20;;
15246;SDS011;7726;48.820;9.248;2023-03-24T08:06:04;2.72;;;2.30;;
15246;SDS011;7726;48.820;9.248;2023-03-24T08:08:32;2.03;;;1.92;;
15246;SDS011;7726;48.820;9.248;2023-03-24T08:11:00;3.80;;;2.28;;
15246;SDS011;7726;48.820;9.248;2023-03-24T08:13:27;2.88;;;2.40;;
15246;SDS011;7726;48.820;9.248;2023-03-24T08:15:55;3.00;;;2.40;;
15246;SDS011;7726;48.820;9.248;2023-03-24T08:18:22;2.35;;;2.08;;
15246;SDS011;7726;48.820;9.248;2023-03-24T08:20:53;3.72;;;2.63;;
15246;SDS011;7726;48.820;9.248;2023-03-24T08:23:21;5.40;;;2.50;;
15246;SDS011;7726;48.820;9.248;2023-03-24T08:25:49;3.33;;;2.50;;
15246;SDS011;7726;48.820;9.248;2023-03-24T08:28:17;4.57;;;2.83;;
15246;SDS011;7726;48.820;9.248;2023-03-24T08:30:45;2.60;;;2.20;;
15246;SDS011;7726;48.820;9.248;2023-03-24T08:33:12;2.78;;;2.22;;
15246;SDS011;7726;48.820;9.248;2023-03-24T08:35:40;2.33;;;2.13;;
15246;SDS011;7726;48.820;9.248;2023-03-24T08:38:09;2.38;;;2.15;;
15246;SDS011;7726;48.820;9.248;2023-03-24T08:40:37;3.40;;;2.58;;
15246;SDS011;7726;48.820;9.248;2023-03-24T08:43:05;3.40;;;2.50;;
15246;SDS011;7726;48.820;9.248;2023-03-24T08:45:35;6.43;;;2.80;;
15246;SDS011;7726;48.820;9.248;2023-03-24T08:48:03;3.10;;;2.50;;
15246;SDS011;7726;48.820;9.248;2023-03-24T08:50:32;3.40;;;2.40;;
15246;SDS011;7726;48.820;9.248;2023-03-24T08:52:59;2.13;;;1.90;;
15246;SDS011;7726;48.820;9.248;2023-03-24T08:55:26;2.47;;;2.28;;
15246;SDS011;7726;48.820;9.248;2023-03-24T08:57:53;2.28;;;2.17;;
15246;SDS011;7726;48.820;9.248;2023-03-24T09:00:22;2.60;;;2.40;;
15246;SDS011;7726;48.820;9.248;2023-03-24T09:02:51;3.63;;;2.15;;
15246;SDS011;7726;48.820;9.248;2023-03-24T09:05:19;2.60;;;2.10;;
15246;SDS011;7726;48.820;9.248;2023-03-24T09:07:47;2.03;;;1.92;;
15246;SDS011;7726;48.820;9.248;2023-03-24T09:10:15;3.45;;;2.05;;
15246;SDS011;7726;48.820;9.248;2023-03-24T09:12:42;3.35;;;2.33;;
15246;SDS011;7726;48.820;9.248;2023-03-24T09:15:10;1.75;;;1.65;;
15246;SDS011;7726;48.820;9.248;2023-03-24T09:17:37;2.97;;;1.80;;
15246;SDS011;7726;48.820;9.248;2023-03-24T09:20:07;2.22;;;2.00;;
15246;SDS011;7726;48.820;9.248;2023-03-24T09:22:36;1.88;;;1.75;;
15246;SDS011;7726;48.820;9.248;2023-03-24T09:25:03;1.70;;;1.60;;
15246;SDS011;7726;48.820;9.248;2023-03-24T09:27:30;2.20;;;2.00;;
15246;SDS011;7726;48.820;9.248;2023-03-24T09:29:58;1.73;;;1.60;;
15246;SDS011;7726;48.820;9.248;2023-03-24T09:32:25;1.70;;;1.60;;
15246;SDS011;7726;48.820;9.248;2023-03-24T09:34:52;1.92;;;1.83;;
15246;SDS011;7726;48.820;9.248;2023-03-24T09:37:20;2.28;;;2.08;;
15246;SDS011;7726;48.820;9.248;2023-03-24T09:39:47;2.10;;;1.90;;
15246;SDS011;7726;48.820;9.248;2023-03-24T09:42:18;1.92;;;1.83;;
15246;SDS011;7726;48.820;9.248;2023-03-24T09:44:47;2.70;;;1.98;;
15246;SDS011;7726;48.820;9.248;2023-03-24T09:47:19;3.53;;;2.10;;
15246;SDS011;7726;48.820;9.248;2023-03-24T09:49:47;2.22;;;1.75;;
15246;SDS011;7726;48.820;9.248;2023-03-24T09:52:17;1.65;;;1.55;;
15246;SDS011;7726;48.820;9.248;2023-03-24T09:54:47;2.85;;;1.60;;
15246;SDS011;7726;48.820;9.248;2023-03-24T09:57:17;1.85;;;1.42;;
15246;SDS011;7726;48.820;9.248;2023-03-24T09:59:46;1.77;;;1.67;;
15246;SDS011;7726;48.820;9.248;2023-03-24T10:02:14;1.83;;;1.73;;
15246;SDS011;7726;48.820;9.248;2023-03-24T10:04:41;1.80;;;1.67;;
15246;SDS011;7726;48.820;9.248;2023-03-24T10:07:12;2.78;;;1.75;;
15246;SDS011;7726;48.820;9.248;2023-03-24T10:09:42;1.90;;;1.35;;
15246;SDS011;7726;48.820;9.248;2023-03-24T10:12:18;1.67;;;1.55;;
15246;SDS011;7726;48.820;9.248;2023-03-24T10:14:51;2.13;;;1.65;;
15246;SDS011;7726;48.820;9.248;2023-03-24T10:17:22;1.63;;;1.52;;
15246;SDS011;7726;48.820;9.248;2023-03-24T10:19:56;1.40;;;1.30;;
15246;SDS011;7726;48.820;9.248;2023-03-24T10:22:27;1.73;;;1.63;;
15246;SDS011;7726;48.820;9.248;2023-03-24T10:24:56;2.45;;;1.40;;
15246;SDS011;7726;48.820;9.248;2023-03-24T10:27:27;2.78;;;1.70;;
15246;SDS011;7726;48.820;9.248;2023-03-24T10:29:59;1.60;;;1.50;;
15246;SDS011;7726;48.820;9.248;2023-03-24T10:32:28;1.58;;;1.38;;
15246;SDS011;7726;48.820;9.248;2023-03-24T10:34:56;1.55;;;1.45;;
15246;SDS011;7726;48.820;9.248;2023-03-24T10:37:31;1.95;;;1.60;;
15246;SDS011;7726;48.820;9.248;2023-03-24T10:39:59;1.88;;;1.27;;
15246;SDS011;7726;48.820;9.248;2023-03-24T10:42:32;1.75;;;1.42;;
15246;SDS011;7726;48.820;9.248;2023-03-24T10:45:00;1.33;;;1.23;;
15246;SDS011;7726;48.820;9.248;2023-03-24T10:47:29;1.63;;;1.52;;
15246;SDS011;7726;48.820;9.248;2023-03-24T10:49:57;1.33;;;1.20;;
15246;SDS011;7726;48.820;9.248;2023-03-24T10:52:25;1.10;;;1.00;;
15246;SDS011;7726;48.820;9.248;2023-03-24T10:54:53;1.17;;;1.00;;
15246;SDS011;7726;48.820;9.248;2023-03-24T10:57:21;1.20;;;1.00;;
15246;SDS011;7726;48.820;9.248;2023-03-24T10:59:51;1.27;;;0.95;;
15246;SDS011;7726;48.820;9.248;2023-03-24T11:02:21;0.90;;;0.90;;
15246;SDS011;7726;48.820;9.248;2023-03-24T11:04:49;0.90;;;0.90;;
15246;SDS011;7726;48.820;9.248;2023-03-24T11:07:18;0.90;;;0.90;;
15246;SDS011;7726;48.820;9.248;2023-03-24T11:09:47;2.05;;;1.00;;
15246;SDS011;7726;48.820;9.248;2023-03-24T11:12:23;1.08;;;1.00;;
15246;SDS011;7726;48.820;9.248;2023-03-24T11:14:51;1.33;;;0.90;;
15246;SDS011;7726;48.820;9.248;2023-03-24T11:17:25;0.80;;;0.70;;
15246;SDS011;7726;48.820;9.248;2023-03-24T11:19:53;1.52;;;0.90;;
15246;SDS011;7726;48.820;9.248;2023-03-24T11:22:20;1.00;;;1.00;;
15246;SDS011;7726;48.820;9.248;2023-03-24T11:24:48;1.00;;;1.00;;
15246;SDS011;7726;48.820;9.248;2023-03-24T11:27:16;0.90;;;0.90;;
15246;SDS011;7726;48.820;9.248;2023-03-24T11:29:44;1.05;;;0.70;;
15246;SDS011;7726;48.820;9.248;2023-03-24T11:32:17;0.73;;;0.73;;
15246;SDS011;7726;48.820;9.248;2023-03-24T11:34:45;1.05;;;0.80;;
15246;SDS011;7726;48.820;9.248;2023-03-24T11:37:17;0.88;;;0.88;;
15246;SDS011;7726;48.820;9.248;2023-03-24T11:39:46;0.85;;;0.80;;
15246;SDS011;7726;48.820;9.248;2023-03-24T11:42:31;1.13;;;0.88;;
15246;SDS011;7726;48.820;9.248;2023-03-24T11:44:58;1.30;;;1.20;;
15246;SDS011;7726;48.820;9.248;2023-03-24T11:47:28;0.98;;;0.98;;
15246;SDS011;7726;48.820;9.248;2023-03-24T11:52:26;0.77;;;0.77;;
15246;SDS011;7726;48.820;9.248;2023-03-24T11:54:54;0.75;;;0.75;;
15246;SDS011;7726;48.820;9.248;2023-03-24T11:57:25;0.80;;;0.80;;
15246;SDS011;7726;48.820;9.248;2023-03-24T11:59:56;0.70;;;0.70;;
15246;SDS011;7726;48.820;9.248;2023-03-24T12:02:29;0.70;;;0.70;;
15246;SDS011;7726;48.820;9.248;2023-03-24T12:05:10;0.80;;;0.80;;
15246;SDS011;7726;48.820;9.248;2023-03-24T12:07:44;0.68;;;0.60;;
15246;SDS011;7726;48.820;9.248;2023-03-24T12:10:17;1.88;;;0.55;;
15246;SDS011;7726;48.820;9.248;2023-03-24T12:12:47;0.50;;;0.50;;
15246;SDS011;7726;48.820;9.248;2023-03-24T12:15:24;0.80;;;0.80;;
15246;SDS011;7726;48.820;9.248;2023-03-24T12:17:56;0.65;;;0.65;;
15246;SDS011;7726;48.820;9.248;2023-03-24T12:20:26;0.70;;;0.70;;
15246;SDS011;7726;48.820;9.248;2023-03-24T12:22:57;2.05;;;0.77;;
15246;SDS011;7726;48.820;9.248;2023-03-24T12:25:29;0.77;;;0.77;;
15246;SDS011;7726;48.820;9.248;2023-03-24T12:28:02;1.33;;;0.77;;
15246;SDS011;7726;48.820;9.248;2023-03-24T12:30:33;1.80;;;0.70;;
15246;SDS011;7726;48.820;9.248;2023-03-24T12:33:18;1.00;;;0.60;;
15246;SDS011;7726;48.820;9.248;2023-03-24T12:35:50;0.93;;;0.82;;
15246;SDS011;7726;48.820;9.248;2023-03-24T12:38:24;0.50;;;0.50;;
15246;SDS011;7726;48.820;9.248;2023-03-24T12:41:01;0.60;;;0.60;;
15246;SDS011;7726;48.820;9.248;2023-03-24T12:43:30;0.63;;;0.60;;
15246;SDS011;7726;48.820;9.248;2023-03-24T12:46:00;0.45;;;0.40;;
15246;SDS011;7726;48.820;9.248;2023-03-24T12:48:46;0.88;;;0.50;;
15246;SDS011;7726;48.820;9.248;2023-03-24T12:51:20;0.45;;;0.40;;
15246;SDS011;7726;48.820;9.248;2023-03-24T12:53:53;3.38;;;0.52;;
15246;SDS011;7726;48.820;9.248;2023-03-24T12:56:23;0.60;;;0.60;;
15246;SDS011;7726;48.820;9.248;2023-03-24T12:58:50;0.38;;;0.30;;
15246;SDS011;7726;48.820;9.248;2023-03-24T13:01:21;0.60;;;0.60;;
15246;SDS011;7726;48.820;9.248;2023-03-24T13:03:51;0.63;;;0.60;;
15246;SDS011;7726;48.820;9.248;2023-03-24T13:06:22;0.50;;;0.50;;
15246;SDS011;7726;48.820;9.248;2023-03-24T13:08:58;1.65;;;0.60;;
15246;SDS011;7726;48.820;9.248;2023-03-24T13:11:30;1.30;;;0.50;;
15246;SDS011;7726;48.820;9.248;2023-03-24T13:14:00;1.52;;;0.68;;
15246;SDS011;7726;48.820;9.248;2023-03-24T13:16:29;2.05;;;0.77;;
15246;SDS011;7726;48.820;9.248;2023-03-24T13:18:58;1.20;;;0.70;;
15246;SDS011;7726;48.820;9.248;2023-03-24T13:21:27;0.50;;;0.50;;
15246;SDS011;7726;48.820;9.248;2023-03-24T13:23:59;0.40;;;0.40;;
15246;SDS011;7726;48.820;9.248;2023-03-24T13:26:32;0.40;;;0.40;;
15246;SDS011;7726;48.820;9.248;2023-03-24T13:29:06;0.50;;;0.35;;
15246;SDS011;7726;48.820;9.248;2023-03-24T13:31:37;0.43;;;0.43;;
15246;SDS011;7726;48.820;9.248;2023-03-24T13:34:09;0.40;;;0.40;;
15246;SDS011;7726;48.820;9.248;2023-03-24T13:36:41;0.45;;;0.45;;
15246;SDS011;7726;48.820;9.248;2023-03-24T13:39:11;0.40;;;0.40;;
15246;SDS011;7726;48.820;9.248;2023-03-24T13:41:39;1.25;;;0.70;;
15246;SDS011;7726;48.820;9.248;2023-03-24T13:44:07;0.88;;;0.80;;
15246;SDS011;7726;48.820;9.248;2023-03-24T13:46:35;2.95;;;0.90;;
15246;SDS011;7726;48.820;9.248;2023-03-24T13:49:03;1.88;;;1.00;;
15246;SDS011;7726;48.820;9.248;2023-03-24T13:51:33;1.45;;;0.90;;
15246;SDS011;7726;48.820;9.248;2023-03-24T13:54:03;1.05;;;0.95;;
15246;SDS011;7726;48.820;9.248;2023-03-24T13:56:31;1.58;;;1.08;;
15246;SDS011;7726;48.820;9.248;2023-03-24T14:04:43;1.30;;;0.70;;
15246;SDS011;7726;48.820;9.248;2023-03-24T14:07:27;1.63;;;0.68;;
15246;SDS011;7726;48.820;9.248;2023-03-24T14:09:56;0.70;;;0.70;;
15246;SDS011;7726;48.820;9.248;2023-03-24T14:12:24;1.83;;;0.95;;
15246;SDS011;7726;48.820;9.248;2023-03-24T14:15:11;1.45;;;0.80;;
15246;SDS011;7726;48.820;9.248;2023-03-24T14:17:39;1.10;;;0.88;;
15246;SDS011;7726;48.820;9.248;2023-03-24T14:20:11;3.00;;;0.90;;
15246;SDS011;7726;48.820;9.248;2023-03-24T14:22:40;1.05;;;0.70;;
15246;SDS011;7726;48.820;9.248;2023-03-24T14:25:18;1.30;;;0.90;;
15246;SDS011;7726;48.820;9.248;2023-03-24T14:27:47;2.10;;;1.27;;
15246;SDS011;7726;48.820;9.248;2023-03-24T14:30:17;2.83;;;0.98;;
15246;SDS011;7726;48.820;9.248;2023-03-24T14:32:46;0.75;;;0.73;;
15246;SDS011;7726;48.820;9.248;2023-03-24T14:35:21;1.48;;;0.73;;
15246;SDS011;7726;48.820;9.248;2023-03-24T14:37:52;0.93;;;0.65;;
15246;SDS011;7726;48.820;9.248;2023-03-24T14:40:23;1.00;;;0.80;;
15246;SDS011;7726;48.820;9.248;2023-03-24T14:42:55;1.85;;;0.70;;
15246;SDS011;7726;48.820;9.248;2023-03-24T14:48:05;1.35;;;0.85;;
15246;SDS011;7726;48.820;9.248;2023-03-24T14:50:38;3.35;;;0.85;;
15246;SDS011;7726;48.820;9.248;2023-03-24T14:53:15;1.35;;;0.80;;
15246;SDS011;7726;48.820;9.248;2023-03-24T14:55:43;0.73;;;0.73;;
15246;SDS011;7726;48.820;9.248;2023-03-24T14:58:11;1.45;;;0.77;;
15246;SDS011;7726;48.820;9.248;2023-03-24T15:00:43;0.75;;;0.70;;
15246;SDS011;7726;48.820;9.248;2023-03-24T15:03:15;0.80;;;0.60;;
15246;SDS011;7726;48.820;9.248;2023-03-24T15:05:43;0.53;;;0.53;;
15246;SDS011;7726;48.820;9.248;2023-03-24T15:08:12;2.27;;;0.90;;
15246;SDS011;7726;48.820;9.248;2023-03-24T15:10:43;0.77;;;0.70;;
15246;SDS011;7726;48.820;9.248;2023-03-24T15:16:00;1.63;;;0.70;;
15246;SDS011;7726;48.820;9.248;2023-03-24T15:18:30;0.87;;;0.67;;
15246;SDS011;7726;48.820;9.248;2023-03-24T15:20:57;1.33;;;0.70;;
15246;SDS011;7726;48.820;9.248;2023-03-24T15:23:26;5.83;;;0.93;;
15246;SDS011;7726;48.820;9.248;2023-03-24T15:25:57;2.53;;;0.70;;
15246;SDS011;7726;48.820;9.248;2023-03-24T15:28:25;2.27;;;0.90;;
15246;SDS011;7726;48.820;9.248;2023-03-24T15:30:53;2.83;;;0.90;;
15246;SDS011;7726;48.820;9.248;2023-03-24T15:33:21;1.10;;;0.70;;
15246;SDS011;7726;48.820;9.248;2023-03-24T15:35:53;3.03;;;0.80;;
15246;SDS011;7726;48.820;9.248;2023-03-24T15:38:27;1.70;;;0.90;;